Time;durP1;ratioP1;P1;durP2;ratioP2;P2;SDS_P1;SDS_P2;PMS_P1;PMS_P2;Temp;Humidity;BMP_temperature;BMP_pressure;BME280_temperature;BME280_humidity;BME280_pressure;Samples;Min_cycle;Max_cycle;Signal;HPM_P1;HPM_P2
2023/05/16 00:01:57;;;;;;;14.88;13.43;;;;;;;15.93;84.72;94738.16;4978885;28;20301;-66
2023/05/16 00:04:24;;;;;;;14.25;12.85;;;;;;;16.04;84.28;94738.34;4981089;28;20342;-68
2023/05/16 00:06:50;;;;;;;15.07;12.48;;;;;;;16.01;84.37;94735.97;4977605;28;20220;-70
2023/05/16 00:09:19;;;;;;;15.98;13.00;;;;;;;15.91;84.79;94734.84;4974830;28;20270;-65
2023/05/16 00:11:47;;;;;;;17.92;14.27;;;;;;;16.00;84.43;94734.31;4976914;28;20299;-71
2023/05/16 00:14:13;;;;;;;14.75;13.27;;;;;;;15.92;84.42;94718.56;4976505;28;20685;-66
2023/05/16 00:16:40;;;;;;;15.55;14.18;;;;;;;15.91;85.08;94724.59;4980869;28;20309;-65
2023/05/16 00:19:07;;;;;;;16.95;13.40;;;;;;;15.95;84.87;94731.19;4995913;28;20461;-69
2023/05/16 00:21:34;;;;;;;16.60;13.32;;;;;;;15.79;85.44;94722.78;5005318;28;20211;-66
2023/05/16 00:24:00;;;;;;;15.77;13.80;;;;;;;15.76;85.79;94725.53;5005296;28;20208;-68
2023/05/16 00:26:28;;;;;;;15.02;13.40;;;;;;;15.83;85.71;94726.81;5004430;28;20259;-68
2023/05/16 00:28:55;;;;;;;15.05;13.68;;;;;;;15.91;85.24;94722.03;5005976;28;20200;-64
2023/05/16 00:31:22;;;;;;;17.98;13.02;;;;;;;16.07;84.44;94725.34;5005450;28;20230;-67
2023/05/16 00:33:48;;;;;;;18.50;14.40;;;;;;;16.05;84.36;94724.63;4981583;28;20744;-68
2023/05/16 00:36:15;;;;;;;14.77;13.35;;;;;;;15.94;84.77;94716.72;4983736;28;20764;-69
2023/05/16 00:38:42;;;;;;;17.52;13.90;;;;;;;15.95;84.82;94710.69;4988824;28;20231;-68
2023/05/16 00:41:08;;;;;;;16.98;14.75;;;;;;;15.83;85.54;94709.72;4978926;28;20247;-68
2023/05/16 00:43:38;;;;;;;20.17;14.43;;;;;;;15.64;86.20;94702.25;4975291;28;20334;-70
2023/05/16 00:46:05;;;;;;;17.95;14.98;;;;;;;15.62;86.51;94698.97;4977548;28;22266;-66
2023/05/16 00:48:32;;;;;;;16.73;15.13;;;;;;;15.54;86.90;94696.03;4979535;28;20244;-69
2023/05/16 00:50:59;;;;;;;19.23;14.88;;;;;;;15.64;86.88;94686.06;4979587;28;20332;-70
2023/05/16 00:53:27;;;;;;;21.95;15.60;;;;;;;15.60;86.57;94687.97;4980042;28;20200;-70
2023/05/16 00:55:55;;;;;;;16.67;14.98;;;;;;;15.57;86.94;94688.19;4980584;28;20222;-67
2023/05/16 00:58:22;;;;;;;17.25;15.45;;;;;;;15.61;86.59;94687.06;4976873;28;20215;-70
2023/05/16 01:00:50;;;;;;;17.40;14.35;;;;;;;15.67;86.70;94690.19;4976162;28;20294;-66
2023/05/16 01:03:18;;;;;;;19.35;15.77;;;;;;;15.66;86.69;94689.38;4978156;28;20204;-63
2023/05/16 01:05:45;;;;;;;16.52;14.57;;;;;;;15.64;86.38;94683.50;4982960;28;20222;-69
2023/05/16 01:08:12;;;;;;;22.33;15.75;;;;;;;15.60;86.57;94685.41;5005924;28;20358;-64
2023/05/16 01:10:45;;;;;;;20.48;15.13;;;;;;;15.57;86.71;94685.63;4982768;28;20393;-68
2023/05/16 01:13:22;;;;;;;17.02;13.82;;;;;;;15.53;86.77;94683.31;4980958;28;20298;-67
2023/05/16 01:16:00;;;;;;;20.52;13.43;;;;;;;15.61;86.52;94684.50;4981619;28;20200;-71
2023/05/16 01:18:35;;;;;;;16.58;14.93;;;;;;;15.58;86.45;94681.34;4983290;28;20289;-67
2023/05/16 01:21:12;;;;;;;22.55;14.60;;;;;;;15.76;85.78;94680.22;4984128;28;20656;-66
2023/05/16 01:23:51;;;;;;;14.93;13.52;;;;;;;15.83;85.67;94680.69;4981015;28;20291;-65
2023/05/16 01:26:22;;;;;;;14.75;13.25;;;;;;;15.98;84.58;94674.63;4982787;28;20286;-70
2023/05/16 01:28:49;;;;;;;15.02;13.55;;;;;;;15.88;85.22;94663.28;4984824;28;20261;-65
2023/05/16 01:31:17;;;;;;;15.23;13.73;;;;;;;15.88;84.98;94669.22;4979171;28;20345;-72
2023/05/16 01:33:44;;;;;;;18.52;13.95;;;;;;;15.89;85.09;94664.94;4978874;28;20211;-70
2023/05/16 01:36:21;;;;;;;15.13;13.68;;;;;;;15.85;85.11;94663.47;4978710;28;20213;-68
2023/05/16 01:39:00;;;;;;;18.77;14.73;;;;;;;15.75;85.52;94658.09;4979320;28;20230;-69
2023/05/16 01:41:40;;;;;;;15.30;13.73;;;;;;;15.71;85.90;94648.94;4980245;28;20212;-64
2023/05/16 01:44:16;;;;;;;16.42;14.13;;;;;;;15.81;85.57;94644.09;4978775;28;20250;-70
2023/05/16 01:46:45;;;;;;;15.20;12.85;;;;;;;15.89;84.46;94649.56;4980545;28;20207;-70
2023/05/16 01:49:17;;;;;;;14.35;12.90;;;;;;;15.84;84.71;94642.13;4979998;28;20299;-68
2023/05/16 01:51:49;;;;;;;14.25;12.63;;;;;;;15.75;85.10;94641.91;4981330;28;20319;-66
2023/05/16 01:54:18;;;;;;;15.15;12.07;;;;;;;15.82;84.72;94633.75;4981910;28;20310;-72
2023/05/16 01:56:52;;;;;;;13.20;11.95;;;;;;;15.80;84.71;94645.00;4983434;28;20236;-70
2023/05/16 01:59:20;;;;;;;13.63;12.43;;;;;;;15.74;85.01;94630.81;4982039;28;20697;-69
2023/05/16 02:01:47;;;;;;;17.52;12.57;;;;;;;15.76;84.82;94648.66;4982849;28;20617;-68
2023/05/16 02:04:14;;;;;;;16.27;12.23;;;;;;;15.69;84.84;94632.00;4983606;28;20303;-71
2023/05/16 02:06:41;;;;;;;19.95;13.10;;;;;;;15.70;84.85;94637.03;4982268;28;20212;-74
2023/05/16 02:09:08;;;;;;;13.13;12.05;;;;;;;15.61;85.08;94635.84;4979673;28;20354;-67
2023/05/16 02:11:35;;;;;;;13.07;11.85;;;;;;;15.54;85.03;94637.13;4978915;28;20303;-70
2023/05/16 02:14:03;;;;;;;13.52;12.02;;;;;;;15.69;84.74;94637.97;4979008;28;20464;-67
2023/05/16 02:16:30;;;;;;;14.63;11.05;;;;;;;15.74;84.22;94641.06;4981431;28;20774;-70
2023/05/16 02:18:56;;;;;;;12.50;10.77;;;;;;;15.67;84.35;94632.09;4982149;28;20204;-65
2023/05/16 02:21:24;;;;;;;13.23;10.98;;;;;;;15.70;84.05;94634.47;4981331;28;21977;-67
2023/05/16 02:23:50;;;;;;;12.15;10.98;;;;;;;15.64;84.36;94625.41;4985930;28;20867;-71
2023/05/16 02:26:17;;;;;;;11.73;10.70;;;;;;;15.64;84.41;94630.53;5007551;28;20788;-69
2023/05/16 02:28:44;;;;;;;14.05;11.27;;;;;;;15.57;84.63;94624.16;5008027;28;20744;-70
2023/05/16 02:31:12;;;;;;;12.35;11.10;;;;;;;15.58;84.16;94614.75;5008129;28;20337;-69
2023/05/16 02:33:38;;;;;;;14.85;10.52;;;;;;;15.62;84.68;94619.56;5007296;28;20231;-68
2023/05/16 02:36:05;;;;;;;12.07;10.82;;;;;;;15.75;83.75;94632.47;5006788;28;20311;-74
2023/05/16 02:38:32;;;;;;;16.88;10.75;;;;;;;15.73;84.01;94633.47;5007896;28;20660;-69
2023/05/16 02:40:58;;;;;;;12.35;11.20;;;;;;;15.75;83.81;94642.72;5007658;28;20335;-69
2023/05/16 02:43:25;;;;;;;17.58;11.98;;;;;;;15.75;83.80;94636.78;5008064;28;20314;-70
2023/05/16 02:45:52;;;;;;;13.73;10.88;;;;;;;15.72;83.79;94636.94;5006711;28;20327;-67
2023/05/16 02:48:20;;;;;;;12.52;11.23;;;;;;;15.87;83.38;94636.00;5007309;28;20313;-70
2023/05/16 02:50:46;;;;;;;11.93;10.55;;;;;;;15.83;83.54;94629.44;5007653;28;20313;-72
2023/05/16 02:53:13;;;;;;;12.13;11.02;;;;;;;15.58;84.42;94625.81;5007460;28;20338;-73
2023/05/16 02:55:40;;;;;;;15.85;11.00;;;;;;;15.52;84.69;94618.47;5006785;28;20200;-66
2023/05/16 02:58:07;;;;;;;14.05;11.55;;;;;;;15.69;84.33;94619.19;5008402;28;22329;-69
2023/05/16 03:00:34;;;;;;;13.18;11.40;;;;;;;15.87;83.55;94620.63;5006536;28;20239;-68
2023/05/16 03:03:01;;;;;;;13.55;11.57;;;;;;;15.92;83.34;94626.31;5007837;28;20297;-71
2023/05/16 03:05:29;;;;;;;10.32;9.20;;;;;;;15.73;83.79;94612.97;5008760;28;20204;-70
2023/05/16 03:07:55;;;;;;;12.93;11.07;;;;;;;15.62;84.17;94617.00;5006862;28;20240;-70
2023/05/16 03:10:22;;;;;;;10.98;9.85;;;;;;;15.70;84.29;94613.16;5007355;28;20377;-67
2023/05/16 03:12:49;;;;;;;11.65;10.35;;;;;;;15.77;83.71;94615.28;5005818;28;20304;-69
2023/05/16 03:15:16;;;;;;;11.82;10.65;;;;;;;15.94;83.00;94615.06;5005071;28;20285;-70
2023/05/16 03:17:42;;;;;;;11.77;10.77;;;;;;;16.01;82.79;94615.50;5006025;28;20200;-72
2023/05/16 03:20:11;;;;;;;12.45;10.15;;;;;;;15.98;82.96;94618.25;5005703;28;20303;-71
2023/05/16 03:22:39;;;;;;;13.45;11.80;;;;;;;15.93;83.39;94615.16;5005490;28;21453;-68
2023/05/16 03:25:07;;;;;;;14.68;11.63;;;;;;;15.89;83.63;94609.38;5005889;28;20277;-72
2023/05/16 03:27:33;;;;;;;13.45;12.13;;;;;;;15.94;83.58;94621.91;5004325;28;20231;-69
2023/05/16 03:30:00;;;;;;;13.27;11.63;;;;;;;15.96;83.18;94614.97;5006906;28;20259;-70
2023/05/16 03:32:27;;;;;;;18.08;12.52;;;;;;;15.78;84.17;94610.97;5007009;28;20733;-67
2023/05/16 03:34:53;;;;;;;13.15;11.63;;;;;;;15.87;83.83;94615.50;5006868;28;20654;-71
2023/05/16 03:37:20;;;;;;;14.57;11.32;;;;;;;15.90;83.66;94617.88;5005255;28;20303;-70
2023/05/16 03:39:48;;;;;;;14.50;12.48;;;;;;;15.91;83.65;94611.84;5005897;28;20307;-72
2023/05/16 03:42:16;;;;;;;17.17;13.05;;;;;;;15.93;83.52;94608.28;5007351;28;20249;-68
2023/05/16 03:44:42;;;;;;;15.15;12.88;;;;;;;15.96;83.14;94614.97;5006443;28;20730;-69
2023/05/16 03:47:09;;;;;;;18.35;13.35;;;;;;;15.92;83.47;94613.50;5006262;28;20767;-69
2023/05/16 03:49:36;;;;;;;16.85;13.60;;;;;;;15.90;83.60;94613.59;5006052;28;20725;-71
2023/05/16 03:52:03;;;;;;;27.52;17.65;;;;;;;15.93;83.79;94615.16;5005353;28;20227;-69
2023/05/16 03:54:30;;;;;;;49.53;30.90;;;;;;;15.89;83.91;94611.13;5007664;28;20211;-72
2023/05/16 03:56:58;;;;;;;26.40;20.42;;;;;;;15.89;84.11;94609.38;5006358;28;20318;-69
2023/05/16 03:59:25;;;;;;;16.27;13.10;;;;;;;15.87;84.25;94602.69;5006827;28;20414;-73
2023/05/16 04:01:52;;;;;;;15.07;13.45;;;;;;;15.82;84.38;94607.31;5005581;28;20593;-72
2023/05/16 04:04:18;;;;;;;19.10;13.18;;;;;;;15.82;84.32;94607.31;5005435;28;20231;-73
2023/05/16 04:06:45;;;;;;;13.63;11.98;;;;;;;15.85;84.47;94607.09;5005467;28;20235;-73
2023/05/16 04:09:12;;;;;;;13.75;12.05;;;;;;;15.85;84.26;94612.22;5005744;28;20339;-74
2023/05/16 04:11:39;;;;;;;29.83;13.93;;;;;;;15.86;84.31;94608.75;5005516;28;20215;-68
2023/05/16 04:14:07;;;;;;;16.00;12.30;;;;;;;15.85;84.12;94619.91;5006312;28;20303;-70
2023/05/16 04:16:33;;;;;;;17.58;13.35;;;;;;;15.78;84.38;94613.53;5006246;28;20362;-71
2023/05/16 04:19:00;;;;;;;15.07;12.73;;;;;;;15.93;83.82;94615.97;5005193;28;20302;-72
2023/05/16 04:21:27;;;;;;;31.08;18.25;;;;;;;16.03;83.32;94616.22;5006261;28;20625;-73
2023/05/16 04:23:53;;;;;;;21.48;17.33;;;;;;;16.01;83.32;94612.94;5006653;28;20349;-71
2023/05/16 04:26:21;;;;;;;30.55;22.00;;;;;;;16.01;83.41;94612.94;5006062;28;20211;-73
2023/05/16 04:28:48;;;;;;;24.27;15.85;;;;;;;15.99;83.50;94612.22;5004432;28;20235;-70
2023/05/16 04:31:16;;;;;;;26.52;17.52;;;;;;;15.97;83.42;94606.34;5005341;28;20302;-69
2023/05/16 04:33:43;;;;;;;35.25;21.48;;;;;;;15.95;83.58;94611.56;5005828;28;20200;-69
2023/05/16 04:36:10;;;;;;;37.85;19.60;;;;;;;16.02;83.50;94608.63;5006167;28;20277;-70
2023/05/16 04:38:36;;;;;;;34.85;18.00;;;;;;;16.03;83.73;94612.84;5009951;28;20227;-70
2023/05/16 04:41:03;;;;;;;25.88;15.90;;;;;;;16.11;83.40;94608.88;5009540;28;20618;-68
2023/05/16 04:43:30;;;;;;;25.40;15.50;;;;;;;16.17;83.33;94608.50;5009270;28;21594;-71
2023/05/16 04:45:58;;;;;;;22.48;15.32;;;;;;;16.20;83.24;94605.75;5009536;28;20203;-72
2023/05/16 04:48:26;;;;;;;24.45;15.27;;;;;;;16.20;83.38;94608.31;5008882;28;20223;-70
2023/05/16 04:50:53;;;;;;;19.83;15.18;;;;;;;16.25;83.00;94606.28;5009776;28;20347;-72
2023/05/16 04:53:19;;;;;;;21.02;16.42;;;;;;;16.29;83.07;94605.19;5009784;28;20672;-71
2023/05/16 04:55:46;;;;;;;19.75;14.57;;;;;;;16.29;83.08;94607.75;5009375;28;20302;-71
2023/05/16 04:58:13;;;;;;;23.58;14.38;;;;;;;16.29;82.96;94607.75;5008772;28;20286;-72
2023/05/16 05:00:39;;;;;;;19.77;15.27;;;;;;;16.28;82.84;94600.16;5009624;28;20202;-72
2023/05/16 05:03:06;;;;;;;21.52;16.15;;;;;;;16.26;82.92;94607.94;5009052;28;20286;-67
2023/05/16 05:05:34;;;;;;;21.33;17.63;;;;;;;16.28;82.86;94600.97;5009850;28;20234;-71
2023/05/16 05:08:01;;;;;;;22.52;16.17;;;;;;;16.34;82.56;94602.28;5009334;28;20338;-71
2023/05/16 05:10:29;;;;;;;19.58;12.45;;;;;;;16.05;82.54;94599.03;5008441;28;20236;-70
2023/05/16 05:12:57;;;;;;;14.73;13.20;;;;;;;16.18;82.38;94610.13;5006449;28;20766;-68
2023/05/16 05:15:23;;;;;;;14.68;13.15;;;;;;;16.21;82.40;94615.09;5007451;28;20289;-71
2023/05/16 05:17:50;;;;;;;15.68;12.57;;;;;;;16.24;81.54;94611.50;5006597;28;20676;-73
2023/05/16 05:20:17;;;;;;;17.85;13.15;;;;;;;16.09;81.64;94605.56;5007569;28;20714;-72
2023/05/16 05:22:45;;;;;;;18.27;13.63;;;;;;;16.14;81.75;94611.25;5007185;28;20377;-72
2023/05/16 05:25:12;;;;;;;16.77;12.43;;;;;;;16.23;81.05;94604.72;5006403;28;20247;-69
2023/05/16 05:27:39;;;;;;;15.93;12.98;;;;;;;16.26;80.87;94605.38;5007338;28;20728;-69
2023/05/16 05:30:07;;;;;;;13.02;11.82;;;;;;;16.28;80.79;94605.28;5009326;28;20341;-71
2023/05/16 05:32:33;;;;;;;13.10;11.23;;;;;;;16.25;80.73;94590.91;5008679;28;20292;-72
2023/05/16 05:35:00;;;;;;;16.13;12.38;;;;;;;16.27;80.52;94591.63;5008414;28;20298;-71
2023/05/16 05:37:27;;;;;;;17.65;13.50;;;;;;;16.25;81.02;94596.03;5008968;28;20299;-71
2023/05/16 05:39:55;;;;;;;16.88;12.57;;;;;;;16.27;80.76;94593.38;5008862;28;20291;-71
2023/05/16 05:42:22;;;;;;;23.05;13.65;;;;;;;16.40;80.44;94583.13;5008273;28;20204;-74
2023/05/16 05:44:48;;;;;;;19.15;13.55;;;;;;;16.45;80.11;94576.81;5007833;28;20240;-72
2023/05/16 05:47:15;;;;;;;14.10;12.75;;;;;;;16.56;79.82;94578.69;5007023;28;20748;-71
2023/05/16 05:49:42;;;;;;;19.75;12.43;;;;;;;16.63;79.68;94578.22;5007902;28;20377;-70
2023/05/16 05:52:09;;;;;;;17.27;12.00;;;;;;;16.50;79.84;94568.81;5007012;28;20301;-69
2023/05/16 05:54:36;;;;;;;16.15;12.15;;;;;;;16.46;80.08;94577.63;5008774;28;20708;-69
2023/05/16 05:57:04;;;;;;;17.17;11.43;;;;;;;16.52;80.21;94587.50;5007800;28;20212;-74
2023/05/16 05:59:31;;;;;;;13.80;10.98;;;;;;;16.54;80.19;94575.41;5007586;28;20208;-67
2023/05/16 06:01:58;;;;;;;14.13;12.02;;;;;;;16.57;80.10;94581.16;5007870;28;20330;-70
2023/05/16 06:04:24;;;;;;;13.65;12.27;;;;;;;16.55;80.41;94582.19;5006879;28;20231;-71
2023/05/16 06:06:51;;;;;;;13.82;12.38;;;;;;;16.63;79.89;94580.78;5008050;28;20228;-72
2023/05/16 06:09:17;;;;;;;13.05;11.75;;;;;;;16.70;79.63;94586.34;5007870;28;20263;-73
2023/05/16 06:11:44;;;;;;;13.27;11.45;;;;;;;16.70;79.53;94588.91;5006130;28;20762;-73
2023/05/16 06:14:14;;;;;;;14.93;11.60;;;;;;;16.63;79.82;94583.34;5008692;28;20234;-72
2023/05/16 06:16:41;;;;;;;12.93;11.10;;;;;;;16.60;80.10;94583.50;5006904;28;20321;-72
2023/05/16 06:19:07;;;;;;;18.30;10.88;;;;;;;16.53;79.97;94586.59;5007690;28;20725;-75
2023/05/16 06:21:34;;;;;;;14.13;11.55;;;;;;;16.55;80.03;94588.13;5007779;28;20287;-73
2023/05/16 06:24:02;;;;;;;11.82;10.63;;;;;;;16.77;79.65;94582.47;5007672;28;20265;-68
2023/05/16 06:26:28;;;;;;;19.83;11.05;;;;;;;16.86;79.07;94575.88;5006641;28;20212;-68
2023/05/16 06:28:55;;;;;;;13.38;11.18;;;;;;;17.05;78.68;94581.47;5007618;28;20351;-69
2023/05/16 06:31:23;;;;;;;17.73;11.40;;;;;;;16.96;78.61;94580.31;5007372;28;20333;-70
2023/05/16 06:33:50;;;;;;;13.57;11.00;;;;;;;16.96;78.30;94582.88;5007141;28;20253;-71
2023/05/16 06:36:16;;;;;;;12.00;10.02;;;;;;;16.86;78.20;94557.91;5006584;28;20290;-68
2023/05/16 06:38:44;;;;;;;20.10;12.07;;;;;;;16.91;78.01;94579.81;5007531;28;20323;-69
2023/05/16 06:41:10;;;;;;;14.02;10.52;;;;;;;16.85;78.65;94575.06;5007952;28;20211;-70
2023/05/16 06:43:37;;;;;;;12.63;11.13;;;;;;;16.93;78.26;94561.72;5006128;28;20773;-72
2023/05/16 06:46:04;;;;;;;15.88;9.85;;;;;;;17.04;77.65;94561.03;5007552;28;20243;-69
2023/05/16 06:48:32;;;;;;;12.52;10.48;;;;;;;17.11;76.90;94564.81;5007038;28;20319;-70
2023/05/16 06:50:58;;;;;;;18.33;10.35;;;;;;;17.08;77.21;94572.72;5006889;28;20310;-69
2023/05/16 06:53:25;;;;;;;16.63;10.50;;;;;;;17.02;77.81;94557.75;5007159;28;20208;-69
2023/05/16 06:55:52;;;;;;;15.48;9.40;;;;;;;16.98;77.25;94552.81;5007133;28;20650;-70
2023/05/16 06:58:19;;;;;;;13.90;10.63;;;;;;;16.96;77.48;94541.81;5007019;28;21995;-70
2023/05/16 07:00:45;;;;;;;14.55;9.98;;;;;;;17.00;77.43;94543.25;5005307;28;20655;-71
2023/05/16 07:03:13;;;;;;;11.93;10.85;;;;;;;16.95;77.39;94529.91;5006392;28;20212;-71
2023/05/16 07:05:41;;;;;;;12.95;10.93;;;;;;;17.04;77.22;94543.88;5007434;28;20299;-71
2023/05/16 07:08:11;;;;;;;17.52;10.63;;;;;;;17.09;76.95;94530.72;5006072;28;20295;-72
2023/05/16 07:10:37;;;;;;;11.90;10.57;;;;;;;17.16;76.87;94529.38;5006694;28;20239;-69
2023/05/16 07:13:05;;;;;;;12.88;9.18;;;;;;;17.13;76.55;94539.88;5004162;28;20652;-69
2023/05/16 07:15:31;;;;;;;12.43;9.55;;;;;;;17.11;76.90;94518.59;5004434;28;20207;-73
2023/05/16 07:17:58;;;;;;;11.60;9.90;;;;;;;17.25;76.04;94531.34;5004953;28;20290;-69
2023/05/16 07:20:25;;;;;;;10.07;9.15;;;;;;;17.28;75.97;94528.56;5005765;28;20284;-72
2023/05/16 07:22:53;;;;;;;13.90;9.05;;;;;;;17.25;75.75;94521.06;5005647;28;20210;-70
2023/05/16 07:25:19;;;;;;;18.25;9.45;;;;;;;17.42;75.05;94507.88;5004155;28;20311;-70
2023/05/16 07:27:46;;;;;;;13.48;9.23;;;;;;;17.49;74.60;94503.16;5004644;28;20204;-71
2023/05/16 07:30:14;;;;;;;18.42;9.63;;;;;;;17.62;74.25;94504.75;5006060;28;20314;-72
2023/05/16 07:32:42;;;;;;;11.40;8.95;;;;;;;17.62;73.68;94515.03;5006371;28;21576;-68
2023/05/16 07:35:09;;;;;;;7.55;6.82;;;;;;;17.50;73.82;94528.75;5005424;28;21556;-69
2023/05/16 07:37:36;;;;;;;11.63;8.02;;;;;;;17.76;73.29;94515.84;5005949;28;20227;-70
2023/05/16 07:40:05;;;;;;;9.20;8.30;;;;;;;17.83;73.10;94524.75;5007378;28;20207;-69
2023/05/16 07:42:32;;;;;;;8.93;8.02;;;;;;;17.85;73.03;94536.56;5006486;28;20208;-72
2023/05/16 07:44:59;;;;;;;10.40;9.40;;;;;;;17.71;72.94;94543.63;5006273;28;20694;-72
2023/05/16 07:47:25;;;;;;;10.55;8.27;;;;;;;17.80;73.31;94532.72;5006222;28;20286;-69
2023/05/16 07:49:52;;;;;;;8.52;7.75;;;;;;;17.91;72.58;94540.47;5007154;28;20357;-68
2023/05/16 07:52:19;;;;;;;15.48;8.50;;;;;;;17.90;72.51;94520.84;5005984;28;20353;-70
2023/05/16 07:54:46;;;;;;;9.38;8.48;;;;;;;17.97;72.36;94510.03;5004314;28;20211;-71
2023/05/16 07:57:15;;;;;;;13.35;8.90;;;;;;;17.98;72.11;94510.84;5005849;28;20358;-71
2023/05/16 07:59:42;;;;;;;11.73;7.45;;;;;;;17.98;72.08;94510.84;5006720;28;20231;-65
2023/05/16 08:02:09;;;;;;;9.05;8.10;;;;;;;18.18;71.32;94507.66;5005648;28;20334;-69
2023/05/16 08:04:36;;;;;;;13.18;9.13;;;;;;;18.17;71.38;94506.00;5005071;28;20208;-71
2023/05/16 08:07:03;;;;;;;11.80;8.52;;;;;;;18.15;71.24;94500.16;5005757;28;20222;-73
2023/05/16 08:09:30;;;;;;;12.68;9.70;;;;;;;18.13;71.25;94502.00;5005249;28;20653;-71
2023/05/16 08:11:56;;;;;;;12.35;7.70;;;;;;;18.12;70.67;94513.22;5005785;28;21491;-70
2023/05/16 08:14:24;;;;;;;10.05;8.18;;;;;;;18.15;70.69;94507.88;5006432;28;20231;-69
2023/05/16 08:16:51;;;;;;;8.82;7.75;;;;;;;18.16;70.81;94495.84;5005460;28;20293;-72
2023/05/16 08:19:18;;;;;;;12.18;7.95;;;;;;;18.19;70.32;94477.63;5006913;28;20289;-70
2023/05/16 08:21:45;;;;;;;10.70;8.05;;;;;;;18.46;69.97;94495.38;5006071;28;20286;-72
2023/05/16 08:24:11;;;;;;;12.77;8.52;;;;;;;18.51;69.70;94494.09;5005681;28;20230;-72
2023/05/16 08:26:38;;;;;;;11.27;9.32;;;;;;;18.51;69.71;94494.09;5005841;28;20230;-71
2023/05/16 08:29:05;;;;;;;13.70;9.07;;;;;;;18.66;69.68;94497.31;5005440;28;20370;-69
2023/05/16 08:31:33;;;;;;;17.50;8.75;;;;;;;18.62;69.57;94501.88;5005401;28;20298;-70
2023/05/16 08:34:05;;;;;;;15.02;9.40;;;;;;;18.66;69.66;94499.91;5004653;28;20293;-72
2023/05/16 08:36:33;;;;;;;15.13;11.80;;;;;;;18.77;69.41;94499.94;5004666;28;21860;-71
2023/05/16 08:39:00;;;;;;;11.35;8.40;;;;;;;18.79;69.35;94503.22;5006098;28;20236;-68
2023/05/16 08:41:27;;;;;;;10.30;9.20;;;;;;;18.83;68.73;94483.19;5005793;28;20231;-69
2023/05/16 08:43:54;;;;;;;10.30;9.18;;;;;;;18.86;69.06;94508.69;5006074;28;20581;-67
2023/05/16 08:46:22;;;;;;;17.50;9.18;;;;;;;18.94;68.88;94501.22;5005151;28;20231;-70
2023/05/16 08:48:53;;;;;;;11.90;9.70;;;;;;;19.02;68.63;94499.72;5005182;28;20239;-67
2023/05/16 08:51:20;;;;;;;11.43;9.02;;;;;;;19.09;67.99;94496.66;5004931;28;20277;-69
2023/05/16 08:53:54;;;;;;;9.85;8.75;;;;;;;19.28;68.33;94490.03;5004803;28;20318;-72
2023/05/16 08:56:22;;;;;;;17.20;9.25;;;;;;;19.49;67.81;94495.28;5004504;28;20199;-71
2023/05/16 08:58:49;;;;;;;10.45;9.35;;;;;;;19.71;66.52;94497.03;5004596;28;20214;-70
2023/05/16 09:01:16;;;;;;;15.65;9.20;;;;;;;20.00;66.14;94512.78;5005547;28;20211;-73
2023/05/16 09:03:44;;;;;;;10.52;7.68;;;;;;;20.07;64.33;94503.59;5005727;28;20341;-72
2023/05/16 09:06:12;;;;;;;13.35;8.57;;;;;;;19.97;64.74;94495.81;5005689;28;20231;-71
2023/05/16 09:08:38;;;;;;;12.02;7.60;;;;;;;20.08;64.09;94504.44;5002489;28;20208;-71
2023/05/16 09:11:05;;;;;;;10.38;7.72;;;;;;;20.19;64.01;94482.00;4981705;28;20236;-72
2023/05/16 09:13:32;;;;;;;7.75;6.97;;;;;;;19.82;64.25;94491.84;4971192;28;20208;-70
2023/05/16 09:16:09;;;;;;;10.20;6.97;;;;;;;19.82;64.63;94503.91;4976119;28;20289;-69
2023/05/16 09:18:36;;;;;;;9.95;6.60;;;;;;;19.55;64.62;94502.53;4977855;28;20211;-70
2023/05/16 09:21:03;;;;;;;9.32;8.02;;;;;;;19.61;65.81;94488.38;4978327;28;20207;-68
2023/05/16 09:23:32;;;;;;;18.92;8.23;;;;;;;19.61;65.74;94496.91;4981107;28;20303;-74
2023/05/16 09:25:59;;;;;;;7.90;7.28;;;;;;;19.85;65.23;94516.56;4981042;28;20295;-71
2023/05/16 09:28:26;;;;;;;13.82;7.55;;;;;;;19.87;65.04;94507.78;4982016;28;20207;-66
2023/05/16 09:30:54;;;;;;;10.00;7.63;;;;;;;19.88;65.35;94485.38;4981547;28;20228;-69
2023/05/16 09:33:22;;;;;;;10.90;8.52;;;;;;;19.90;65.05;94492.06;4979843;28;20224;-71
2023/05/16 09:35:55;;;;;;;7.78;7.05;;;;;;;19.88;64.50;94482.81;4978731;28;20306;-72
2023/05/16 09:38:22;;;;;;;8.00;7.30;;;;;;;19.81;64.97;94466.16;4978609;28;21893;-67
2023/05/16 09:40:50;;;;;;;9.43;7.53;;;;;;;19.90;65.16;94460.28;4981919;28;20233;-67
2023/05/16 09:43:18;;;;;;;11.05;7.82;;;;;;;19.90;64.73;94483.50;4982426;28;20214;-69
2023/05/16 09:45:47;;;;;;;10.07;7.63;;;;;;;19.89;64.46;94469.78;4981905;28;21113;-69
2023/05/16 09:48:15;;;;;;;10.52;6.85;;;;;;;19.90;64.48;94460.28;4982231;28;20761;-67
2023/05/16 09:50:48;;;;;;;10.52;7.88;;;;;;;20.02;64.22;94467.06;4999902;28;20239;-66
2023/05/16 09:53:15;;;;;;;7.20;6.47;;;;;;;19.91;63.76;94472.25;5002824;28;20282;-63
2023/05/16 09:55:42;;;;;;;9.85;7.60;;;;;;;20.14;63.89;94471.22;5006688;28;20330;-61
2023/05/16 09:58:10;;;;;;;10.95;6.78;;;;;;;20.09;63.37;94460.47;5007147;28;20306;-63
2023/05/16 10:00:37;;;;;;;9.45;6.72;;;;;;;20.24;62.89;94454.06;5006512;28;20210;-71
2023/05/16 10:03:04;;;;;;;8.73;6.32;;;;;;;20.32;62.34;94468.91;5007405;28;20786;-61
2023/05/16 10:05:31;;;;;;;10.23;6.78;;;;;;;20.41;62.34;94460.47;5008232;28;20335;-62
2023/05/16 10:07:58;;;;;;;7.68;6.95;;;;;;;20.67;61.63;94471.25;5007714;28;20298;-63
2023/05/16 10:10:27;;;;;;;11.25;6.75;;;;;;;20.68;61.74;94470.28;5007568;28;20326;-64
2023/05/16 10:12:57;;;;;;;11.27;7.75;;;;;;;20.84;60.98;94462.91;5007734;28;20238;-63
2023/05/16 10:15:26;;;;;;;8.35;6.95;;;;;;;20.82;61.35;94459.63;5007690;28;20295;-62
2023/05/16 10:17:56;;;;;;;14.85;6.82;;;;;;;20.72;61.50;94463.94;5007224;28;20214;-62
2023/05/16 10:20:25;;;;;;;11.98;7.40;;;;;;;20.56;61.79;94460.97;5007738;28;20291;-61
2023/05/16 10:22:53;;;;;;;8.38;6.85;;;;;;;20.22;62.26;94486.91;5007609;28;20212;-62
2023/05/16 10:25:26;;;;;;;10.32;7.35;;;;;;;20.12;63.17;94491.16;5007708;28;20681;-62
2023/05/16 10:27:54;;;;;;;8.07;6.68;;;;;;;20.10;63.23;94476.75;5007224;28;20210;-62
2023/05/16 10:30:21;;;;;;;10.13;6.95;;;;;;;20.20;63.45;94472.50;5006310;28;20283;-61
2023/05/16 10:32:51;;;;;;;13.30;7.78;;;;;;;20.16;63.19;94471.09;5006822;28;20301;-62
2023/05/16 10:35:18;;;;;;;13.15;7.78;;;;;;;20.17;63.67;94467.59;5005548;28;20295;-62
2023/05/16 10:37:47;;;;;;;12.65;7.95;;;;;;;20.28;63.87;94459.81;5007066;28;20285;-61
2023/05/16 10:40:14;;;;;;;12.95;8.10;;;;;;;20.36;63.30;94460.81;5006343;28;20564;-62
2023/05/16 10:42:44;;;;;;;11.63;8.00;;;;;;;20.20;64.10;94442.38;5007814;28;21209;-63
2023/05/16 10:45:21;;;;;;;12.25;7.05;;;;;;;20.23;64.24;94434.38;5005758;28;20756;-61
2023/05/16 10:47:56;;;;;;;13.48;7.57;;;;;;;20.30;64.16;94420.00;5006872;28;20647;-61
2023/05/16 10:50:38;;;;;;;18.42;9.05;;;;;;;20.54;63.56;94417.22;5007132;28;20364;-62
2023/05/16 10:53:20;;;;;;;10.68;8.13;;;;;;;20.61;63.26;94425.28;5006215;28;21097;-62
2023/05/16 10:56:04;;;;;;;12.60;7.88;;;;;;;20.45;64.02;94406.84;5005672;28;20302;-63
2023/05/16 10:58:41;;;;;;;10.88;8.30;;;;;;;20.45;64.28;94412.00;5006565;28;20304;-61
2023/05/16 11:01:24;;;;;;;9.68;7.82;;;;;;;20.43;64.51;94421.63;5005290;28;20206;-62
2023/05/16 11:04:04;;;;;;;15.45;7.40;;;;;;;20.24;64.78;94423.13;5006427;28;20207;-63
2023/05/16 11:06:32;;;;;;;13.57;9.98;;;;;;;20.16;65.26;94428.06;5006108;28;20620;-63
2023/05/16 11:09:08;;;;;;;9.23;7.97;;;;;;;20.12;65.56;94439.56;5006735;28;20242;-62
2023/05/16 11:11:39;;;;;;;15.65;9.85;;;;;;;20.16;65.02;94451.28;5007298;28;20231;-63
2023/05/16 11:14:06;;;;;;;16.38;7.65;;;;;;;20.34;64.97;94457.53;5004640;28;20214;-62
2023/05/16 11:16:34;;;;;;;9.65;7.57;;;;;;;20.60;64.36;94475.25;5007197;28;20319;-62
2023/05/16 11:19:06;;;;;;;14.95;8.07;;;;;;;20.68;64.66;94483.22;5006322;28;20225;-64
2023/05/16 11:22:06;;;;;;;11.27;8.55;;;;;;;20.74;63.87;94480.13;5006407;28;20203;-63
2023/05/16 11:24:34;;;;;;;10.30;8.05;;;;;;;20.87;63.89;94478.16;4968826;28;20208;-62
2023/05/16 11:27:02;;;;;;;15.50;8.60;;;;;;;20.77;63.81;94486.81;5005254;28;20214;-63